»·PEaware :: SWA6401 KSMF-KSAN

SWA6401 :: KSMF-KSAN

FLIGHT INFORMATION

Flight Status: Arrived
Operator:
Southwest Airlines
More flights by this operator :: More flights under this callsign
Pilot: Paul A. (20189)
Aircraft: BOEING 737-700
(B737)
More flights by this aircraft type
Origin: KSMF Sacramento Intl
United States
Destination: KSAN San Diego Intl-Lindbergh
United States
More flights between these airports :: More routes between these airports
Route: +FTHIL2 FRA EHF HUULK COMIX2
File this flight plan on PilotEdge
Remarks:
Altitude:
(Current/Filed)
39,000ft
Speed:
(Current/Filed)
455kts
Departed: 30-Oct-18 10:16 AM
Arrived: 30-Oct-18 11:26 AM
Distance/Time
Traveled:
417nm/1:10
Distance/Time
To Go:
Arrived

Flight Plot

Page will automatically refresh every two minutes.

Flight plan parsing failed; only flown route is shown


Map Options




Map Legend


Flown Route
Filed Route
Departure Airport
Arrival Airport
Navaid (VOR, NDB)
Fix

Horizontal Profiles

Position Reports

Time Latitude Longitude Heading Altitude Ground
Speed
30-Oct-18 09:56 38.691929 -121.594770 49 35ft 0kts
30-Oct-18 10:01 38.693047 -121.593449 49 36ft 0kts
30-Oct-18 10:02 38.693047 -121.593449 49 36ft 0kts
30-Oct-18 10:03 38.693047 -121.593449 49 36ft 0kts
30-Oct-18 10:04 38.693047 -121.593449 49 36ft 0kts
30-Oct-18 10:05 38.693047 -121.593449 49 36ft 0kts
30-Oct-18 10:06 38.693047 -121.593449 49 36ft 0kts
30-Oct-18 10:07 38.693047 -121.593449 49 36ft 0kts
30-Oct-18 10:08 38.693047 -121.593449 49 36ft 0kts
30-Oct-18 10:09 38.692989 -121.593535 49 36ft 2kts
30-Oct-18 10:10 38.692672 -121.593877 18 36ft 0kts
30-Oct-18 10:11 38.692672 -121.593877 18 36ft 0kts
30-Oct-18 10:12 38.692672 -121.593877 18 36ft 0kts
30-Oct-18 10:13 38.693409 -121.594542 322 36ft 17kts
30-Oct-18 10:14 38.692676 -121.598693 180 36ft 31kts
30-Oct-18 10:15 38.685004 -121.598784 180 36ft 23kts
30-Oct-18 10:16 38.683842 -121.600468 271 36ft 0kts
30-Oct-18 10:17 38.684387 -121.601447 358 36ft 18kts
30-Oct-18 10:18 38.714915 -121.586797 64 2688ft 160kts
30-Oct-18 10:19 38.688078 -121.518717 122 5818ft 256kts
30-Oct-18 10:20 38.642477 -121.438103 122 9735ft 302kts
30-Oct-18 10:21 38.587819 -121.341957 122 12472ft 375kts
30-Oct-18 10:22 38.523365 -121.228812 122 15628ft 409kts
30-Oct-18 10:23 38.454222 -121.106874 122 18639ft 437kts
30-Oct-18 10:24 38.380718 -120.978129 121 21372ft 462kts
30-Oct-18 10:25 38.302859 -120.842468 121 23731ft 484kts
30-Oct-18 10:26 38.222043 -120.701898 120 25964ft 500kts
30-Oct-18 10:27 38.138459 -120.557569 120 27953ft 512kts
30-Oct-18 10:28 38.052891 -120.410384 119 29656ft 522kts
30-Oct-18 10:29 37.968046 -120.259041 123 31289ft 530kts
30-Oct-18 10:30 37.852217 -120.141799 148 33144ft 539kts
30-Oct-18 10:31 37.722273 -120.049456 148 34746ft 535kts
30-Oct-18 10:32 37.593945 -119.955081 148 36077ft 534kts
30-Oct-18 10:33 37.465808 -119.860435 149 37266ft 533kts
30-Oct-18 10:34 37.337627 -119.765958 149 38379ft 532kts
30-Oct-18 10:35 37.209930 -119.672415 150 39204ft 534kts
30-Oct-18 10:36 37.078684 -119.586813 161 39198ft 528kts
30-Oct-18 10:37 36.937239 -119.541449 170 39190ft 525kts
30-Oct-18 10:38 36.795202 -119.498508 169 39186ft 526kts
30-Oct-18 10:39 36.652873 -119.454461 169 39184ft 526kts
30-Oct-18 10:40 36.511130 -119.410579 169 39183ft 525kts
30-Oct-18 10:41 36.369041 -119.366729 169 39180ft 525kts
30-Oct-18 10:42 36.227382 -119.323168 169 39180ft 525kts
30-Oct-18 10:43 36.085324 -119.279643 169 39186ft 525kts
30-Oct-18 10:46 35.665788 -119.151950 169 39181ft 522kts
30-Oct-18 10:47 35.530144 -119.111033 169 39186ft 523kts
30-Oct-18 10:48 35.393442 -119.047652 156 39190ft 527kts
30-Oct-18 10:49 35.260653 -118.972874 157 39186ft 525kts
30-Oct-18 10:50 35.127653 -118.898813 156 39176ft 524kts
30-Oct-18 10:51 34.994906 -118.825201 157 39183ft 523kts
30-Oct-18 10:52 34.862614 -118.752149 156 39186ft 523kts
30-Oct-18 10:53 34.730392 -118.679462 157 39189ft 521kts
30-Oct-18 10:54 34.597902 -118.606929 155 39169ft 520kts
30-Oct-18 10:55 34.472682 -118.520035 149 39129ft 519kts
30-Oct-18 10:56 34.348826 -118.431204 149 39081ft 517kts
30-Oct-18 10:57 34.229699 -118.346446 149 38856ft 519kts
30-Oct-18 10:58 34.116347 -118.266132 149 37934ft 507kts
30-Oct-18 10:59 34.004407 -118.187122 150 36194ft 500kts
30-Oct-18 11:00 33.882945 -118.101905 150 33032ft 510kts
30-Oct-18 11:01 33.763121 -118.020910 151 29756ft 514kts
30-Oct-18 11:02 33.639867 -117.939624 151 26965ft 499kts
30-Oct-18 11:03 33.519518 -117.859744 150 24178ft 487kts
30-Oct-18 11:04 33.407963 -117.772133 137 21417ft 475kts
30-Oct-18 11:05 33.311201 -117.667466 137 18674ft 464kts
30-Oct-18 11:06 33.217606 -117.568090 138 17103ft 426kts
30-Oct-18 11:07 33.130875 -117.477673 142 15001ft 403kts
30-Oct-18 11:08 33.044993 -117.406730 145 13576ft 336kts
30-Oct-18 11:09 32.971688 -117.345230 146 12335ft 309kts
30-Oct-18 11:10 32.907916 -117.291887 145 10203ft 291kts
30-Oct-18 11:11 32.843112 -117.238047 144 8190ft 278kts
30-Oct-18 11:12 32.801889 -117.168831 103 7183ft 250kts
30-Oct-18 11:13 32.784631 -117.090403 102 6274ft 242kts
30-Oct-18 11:14 32.761364 -117.018491 113 5959ft 216kts
30-Oct-18 11:15 32.740099 -116.956804 107 5961ft 195kts
30-Oct-18 11:16 32.721846 -116.895697 107 5969ft 196kts
30-Oct-18 11:17 32.703821 -116.834481 107 5967ft 196kts
30-Oct-18 11:18 32.685923 -116.773425 107 5958ft 196kts
30-Oct-18 11:19 32.648941 -116.755473 240 5856ft 189kts
30-Oct-18 11:21 32.638094 -116.809057 289 5162ft 179kts
30-Oct-18 11:22 32.654163 -116.864418 288 4965ft 179kts
30-Oct-18 11:23 32.668384 -116.921236 287 4801ft 181kts
30-Oct-18 11:24 32.682253 -116.978178 287 3709ft 175kts
30-Oct-18 11:25 32.695523 -117.032846 286 2621ft 164kts
30-Oct-18 11:26 32.707858 -117.083684 285 1771ft 152kts
30-Oct-18 11:27 32.719060 -117.128240 282 1035ft 135kts
30-Oct-18 11:28 32.729245 -117.171744 284 194ft 138kts
30-Oct-18 11:29 32.734135 -117.194916 204 23ft 1kts
30-Oct-18 11:30 32.733238 -117.195565 228 23ft 0kts
30-Oct-18 11:31 32.733238 -117.195565 228 23ft 0kts
30-Oct-18 11:32 32.733238 -117.195565 228 23ft 0kts
30-Oct-18 11:33 32.733238 -117.195565 228 23ft 0kts
30-Oct-18 11:34 32.733238 -117.195565 228 23ft 0kts
30-Oct-18 11:35 32.733238 -117.195565 228 23ft 0kts
30-Oct-18 11:36 32.733238 -117.195565 228 23ft 0kts
30-Oct-18 11:37 32.733238 -117.195565 228 23ft 0kts
30-Oct-18 11:38 32.733238 -117.195565 228 23ft 0kts
30-Oct-18 11:39 32.733238 -117.195565 228 23ft 0kts
30-Oct-18 11:40 32.733238 -117.195565 228 23ft 0kts
30-Oct-18 11:41 32.733238 -117.195565 228 23ft 0kts
30-Oct-18 11:42 32.733238 -117.195565 228 23ft 0kts
30-Oct-18 11:43 32.733238 -117.195565 228 23ft 0kts
30-Oct-18 11:44 32.733238 -117.195565 228 23ft 0kts

Navigation Log

Ident Type
Flight plan parsing failed, navigation log unavailable